Valparaiso, FL (32580)

11:10 AM CDT on August 25, 2016 (GMT -0500)
Pear Tree Observatory | | Change Station

Elev 80 ft 30.51 °N, 86.50 °W | Updated 11 seconds ago

Scattered Clouds
Scattered Clouds
88.6 °F
Feels Like 96 °F
N
0.0
Wind Variable Wind from SE
Gusts 1.0 mph

Today
High -- | Low -- °F
--% Chance of Precip.
Yesterday
High -- | Low -- °F
Precip. -- in
Pressure 30.14 in
Visibility 10.0 miles
Clouds Few 5000 ft
Few 10000 ft
Scattered Clouds 25000 ft
Heat Index 96 °F
Dew Point 73 °F
Humidity 60%
Rainfall 0.00 in
Snow Depth Not available.
6:18 AM 7:16 PM
Last Quarter, 44% visible
METAR KVPS 251556Z 07007KT 10SM FEW050 FEW100 SCT250 31/19 A3014 RMK AO2A SLP207 T03120191 $
Pressure 30.14 in
Visibility 10.0 miles
Clouds Few 5000 ft
Few 10000 ft
Scattered Clouds 25000 ft
Heat Index 96 °F
Dew Point 73 °F
Humidity 60%
Rainfall 0.00 in
Snow Depth Not available.
6:18 AM 7:16 PM
Last Quarter, 44% visible
METAR KVPS 251556Z 07007KT 10SM FEW050 FEW100 SCT250 31/19 A3014 RMK AO2A SLP207 T03120191 $

10-Day Weather Forecast

Almanac

Astronomy

Aug. 25, 2016 Rise Set
Actual Time
Civil Twilight
Nautical Twilight
Astronomical Twilight
Moon
Length of Visible Light
Length of Day
Tomorrow will be .
, % of the Moon is Illuminated

Today's Extremes

State Highs State Lows

Community

WunderPhotos

Upload Photos

1,934,867 photos uploaded!

WunderBlog® & News

Nearby

Air Quality

  Air Quality AQ Index Pollutant
Not available.

Snow Depth

Station Depth Elevation

Earthquake Activity

City Distance Mag. Time & Date
Minimum magnitude displayed is 2.5.

Coastal Water Temperatures

Place Temperature

Stations

Nearby Weather Stations

Station Location Temp. Windchill Dew Point Humidity Wind Precip. Elev Updated Type
                   

Watches & Warnings

There are currently no watches in effect.